Latest Coastal Weather Observations for Portland Harbour

IDV60701

Issued at 3:02 am EDT Saturday 24 February 2018 (issued every 10 minutes, with the page automatically refreshed every 10 minutes)

About coastal observations | Map of coastal stations | Coastal observations for VIC | Marine services | Other Formats
Station Details ID: 090192 Name: PORTLAND NTC AWS Lat: -38.34 Lon: 141.61 Height: 0.0 m
Data from the previous 72 hours. | See also: Recent months for locations in Victoria
Date/Time
EDT
Temp
°C
Wind Pressure Rain since
9am
mm
Weather Cloud Vis
km
Sea
Height
m
Swell
Dir  Spd
kts
Gust
kts
hPa Trend Height
m
Period
s
Dir
24/03:00am 20.7 W 12 18 1001.1 - - - - - - - - -
24/02:30am 21.2 W 12 17 1001.2 - - - - - - - - -
24/02:00am 20.9 SW 1 3 1000.9 - - - - - - - - -
24/01:30am 21.2 WSW 1 3 1001.2 - - - - - - - - -
24/01:00am 21.1 NW 2 4 1001.1 - - - - - - - - -
24/12:30am 20.8 S 1 3 1001.3 - - - - - - - - -
24/12:00am 21.1 N 2 4 1001.8 - - - - - - - - -
 
Date/Time
EDT
Temp
°C
Wind Pressure Rain since
9am
mm
Weather Cloud Vis
km
Sea
Height
m
Swell
Dir  Spd
kts
Gust
kts
hPa Trend Height
m
Period
s
Dir
23/11:30pm 21.1 NE 8 9 1002.2 - - - - - - - - -
23/11:00pm 22.4 ESE 8 11 1001.5 - - - - - - - - -
23/10:30pm 21.9 ENE 5 7 1002.3 - - - - - - - - -
23/10:00pm 20.9 NNE 9 11 1002.9 - - - - - - - - -
23/09:30pm 21.1 ENE 5 7 1002.3 - - - - - - - - -
23/09:00pm 20.7 NNE 4 6 1002.1 - - - - - - - - -
23/08:30pm 21.1 NE 2 3 1001.8 - - - - - - - - -
23/08:00pm 21.6 N 5 7 1002.1 - - - - - - - - -
23/07:30pm 21.8 SE 4 8 1001.7 - - - - - - - - -
23/07:00pm 21.4 E 12 17 1001.2 - - - - - - - - -
23/06:30pm 21.3 E 9 13 1002.0 - - - - - - - - -
23/06:00pm 23.6 N 13 35 1003.8 - - - - - - - - -
23/05:56pm 21.1 E 10 34 1004.1 - - - - - - - - -
23/05:30pm 20.9 ESE 10 15 1001.4 - - - - - - - - -
23/05:00pm 21.1 SE 9 12 1001.9 - - - - - - - - -
23/04:30pm 20.8 SE 4 9 1002.4 - - - - - - - - -
23/04:00pm 20.4 E 5 11 1002.9 - - - - - - - - -
23/03:30pm 20.5 ENE 15 20 1003.3 - - - - - - - - -
23/03:00pm 20.5 ENE 19 23 1003.5 - - - - - - - - -
23/02:30pm 20.3 ENE 14 16 1004.6 - - - - - - - - -
23/02:00pm 20.0 E 6 8 1005.2 - - - - - - - - -
23/01:30pm 20.6 E 4 9 1006.0 - - - - - - - - -
23/01:00pm 20.4 E 6 9 1005.9 - - - - - - - - -
23/12:30pm 20.8 SE 6 9 1006.3 - - - - - - - - -
23/12:00pm 20.3 ESE 9 14 1006.1 - - - - - - - - -
23/11:30am 20.4 SE 8 11 1006.8 - - - - - - - - -
23/11:00am 20.8 SE 10 15 1006.5 - - - - - - - - -
23/10:30am 19.7 SE 16 25 1006.2 - - - - - - - - -
23/10:00am 20.4 SE 12 18 1007.8 - - - - - - - - -
23/09:30am 20.1 SE 18 23 1007.3 - - - - - - - - -
23/09:00am 20.4 SSE 14 21 1007.5 - - - - - - - - -
23/08:30am 19.3 S 9 13 1007.1 - - - - - - - - -
23/08:00am 19.3 E 10 13 1006.7 - - - - - - - - -
23/07:30am 19.2 E 7 9 1007.2 - - - - - - - - -
23/07:00am 19.1 E 6 8 1007.3 - - - - - - - - -
23/06:30am 19.2 E 6 8 1007.6 - - - - - - - - -
23/06:00am 19.1 ESE 5 6 1007.7 - - - - - - - - -
23/05:30am 19.1 E 4 5 1007.7 - - - - - - - - -
23/05:00am 19.2 ENE 5 7 1008.2 - - - - - - - - -
23/04:30am 19.1 NE 4 6 1008.6 - - - - - - - - -
23/04:00am 19.1 ENE 7 8 1008.5 - - - - - - - - -
23/03:30am 19.1 E 5 6 1008.9 - - - - - - - - -
23/03:00am 19.1 ENE 5 6 1009.3 - - - - - - - - -
23/02:30am 19.1 ENE 5 8 1009.5 - - - - - - - - -
23/02:00am 19.1 E 7 8 1009.2 - - - - - - - - -
23/01:30am 19.2 NE 3 5 1010.1 - - - - - - - - -
23/01:00am 19.3 NE 4 4 1010.3 - - - - - - - - -
23/12:30am 19.3 NE 6 7 1010.6 - - - - - - - - -
23/12:00am 19.2 NE 7 8 1010.8 - - - - - - - - -
 
Date/Time
EDT
Temp
°C
Wind Pressure Rain since
9am
mm
Weather Cloud Vis
km
Sea
Height
m
Swell
Dir  Spd
kts
Gust
kts
hPa Trend Height
m
Period
s
Dir
22/11:30pm 19.3 NE 7 8 1011.2 - - - - - - - - -
22/11:00pm 19.3 NE 7 8 1011.6 - - - - - - - - -
22/10:30pm 19.4 NE 8 9 1011.7 - - - - - - - - -
22/10:00pm 19.5 NNE 6 7 1011.8 - - - - - - - - -
22/09:30pm 19.5 NNE 9 11 1011.7 - - - - - - - - -
22/09:00pm 19.9 NNE 11 13 1011.6 - - - - - - - - -
22/08:30pm 20.1 NNE 7 11 1011.4 - - - - - - - - -
22/08:00pm 20.3 NE 5 6 1011.2 - - - - - - - - -
22/07:30pm 20.2 NNE 3 5 1010.9 - - - - - - - - -
22/07:00pm 20.6 N 4 5 1010.7 - - - - - - - - -
22/06:30pm 20.9 N 5 5 1010.6 - - - - - - - - -
22/06:00pm 21.8 N 7 9 1010.5 - - - - - - - - -
22/05:30pm 21.4 N 9 12 1010.5 - - - - - - - - -
22/05:00pm 20.7 ENE 3 5 1010.1 - - - - - - - - -
22/04:30pm 20.5 ESE 7 9 1010.0 - - - - - - - - -
22/04:00pm 20.8 E 5 7 1010.3 - - - - - - - - -
22/03:30pm 20.9 E 4 7 1010.5 - - - - - - - - -
22/03:00pm 21.3 ESE 4 7 1010.7 - - - - - - - - -
22/02:30pm 21.9 ESE 4 8 1010.9 - - - - - - - - -
22/02:00pm 21.3 ESE 4 7 1011.1 - - - - - - - - -
22/01:30pm 21.2 E 2 3 1011.4 - - - - - - - - -
22/01:00pm 20.5 NE 1 3 1011.7 - - - - - - - - -
22/12:30pm 20.4 E 2 4 1011.7 - - - - - - - - -
22/12:00pm 20.6 ESE 4 6 1011.9 - - - - - - - - -
22/11:30am 20.5 ESE 5 8 1012.0 - - - - - - - - -
22/11:00am 20.1 ESE 4 8 1012.0 - - - - - - - - -
22/10:30am 19.4 SE 4 5 1012.3 - - - - - - - - -
22/10:00am 19.6 NW 5 8 1012.9 - - - - - - - - -
22/09:30am 19.6 ESE 3 6 1012.1 - - - - - - - - -
22/09:00am 19.4 SE 6 10 1011.6 - - - - - - - - -
22/08:30am 19.4 E 2 3 1012.1 - - - - - - - - -
22/08:00am 19.2 ESE 4 8 1011.4 - - - - - - - - -
22/07:30am 19.4 ESE 4 8 1011.3 - - - - - - - - -
22/07:00am 19.3 ESE 4 7 1011.2 - - - - - - - - -
22/06:30am 19.5 ESE 5 10 1011.2 - - - - - - - - -
22/06:00am 19.5 ESE 5 9 1011.2 - - - - - - - - -
22/05:30am 19.5 ESE 5 8 1011.3 - - - - - - - - -
22/05:00am 19.5 ESE 5 9 1011.2 - - - - - - - - -
22/04:30am 19.5 E 6 9 1011.3 - - - - - - - - -
22/04:00am 19.6 E 9 13 1011.2 - - - - - - - - -
22/03:30am 19.4 E 6 10 1011.3 - - - - - - - - -
22/03:00am 19.4 E 9 12 1011.4 - - - - - - - - -
22/02:30am 19.4 E 7 10 1011.6 - - - - - - - - -
22/02:00am 20.0 ENE 10 13 1011.7 - - - - - - - - -
22/01:30am 20.2 NE 12 15 1012.0 - - - - - - - - -
22/01:00am 20.3 NE 13 17 1012.1 - - - - - - - - -
22/12:30am 19.9 NE 14 18 1012.3 - - - - - - - - -
22/12:00am 19.9 ENE 12 15 1012.4 - - - - - - - - -
 
Date/Time
EDT
Temp
°C
Wind Pressure Rain since
9am
mm
Weather Cloud Vis
km
Sea
Height
m
Swell
Dir  Spd
kts
Gust
kts
hPa Trend Height
m
Period
s
Dir
21/11:30pm 19.8 E 10 14 1012.8 - - - - - - - - -
21/11:00pm 20.0 ENE 11 13 1013.2 - - - - - - - - -
21/10:30pm 19.9 ENE 16 21 1013.0 - - - - - - - - -
21/10:27pm 19.8 ENE 15 20 1013.1 - - - - - - - - -
21/10:00pm 19.5 NE 5 10 1013.6 - - - - - - - - -
21/09:30pm 19.4 NE 6 8 1013.3 - - - - - - - - -
21/09:00pm 19.5 NE 4 5 1013.3 - - - - - - - - -
21/08:30pm 19.5 ENE 10 13 1013.0 - - - - - - - - -
21/08:00pm 19.2 NE 9 10 1012.9 - - - - - - - - -
21/07:30pm 19.2 NE 5 8 1012.8 - - - - - - - - -
21/07:00pm 19.2 NE 4 5 1012.9 - - - - - - - - -
21/06:30pm 19.2 NE 6 7 1013.1 - - - - - - - - -
21/06:00pm 19.0 NE 6 7 1012.8 - - - - - - - - -
21/05:30pm 19.0 ENE 4 5 1012.9 - - - - - - - - -
21/05:00pm 19.1 NNE 4 5 1012.8 - - - - - - - - -
21/04:30pm 18.8 NE 5 6 1012.9 - - - - - - - - -
21/04:00pm 18.8 ENE 3 6 1013.1 - - - - - - - - -
21/03:30pm 19.0 S 3 3 1013.3 - - - - - - - - -
21/03:00pm 18.8 SE 4 6 1013.2 - - - - - - - - -
21/02:30pm 19.0 ESE 3 5 1013.5 - - - - - - - - -
21/02:00pm 18.9 ESE 4 8 1013.4 - - - - - - - - -
21/01:30pm 19.4 ESE 4 6 1013.1 - - - - - - - - -
21/01:00pm 20.9 WSW 5 9 1013.1 - - - - - - - - -
21/12:30pm 19.9 SW 5 8 1013.4 - - - - - - - - -
21/12:00pm 19.1 S 2 3 1013.3 - - - - - - - - -
21/11:30am 18.8 SSE 4 7 1013.0 - - - - - - - - -
21/11:00am 18.8 E 4 6 1012.9 - - - - - - - - -
21/10:30am 18.4 ENE 8 9 1012.7 - - - - - - - - -
21/10:00am 18.1 ENE 10 11 1012.8 - - - - - - - - -
21/09:30am 18.1 ENE 10 12 1012.8 - - - - - - - - -
21/09:00am 18.0 ENE 11 13 1012.6 - - - - - - - - -
21/08:30am 18.2 ENE 12 14 1012.5 - - - - - - - - -
21/08:00am 18.1 ENE 13 14 1012.4 - - - - - - - - -
21/07:30am 18.2 E 13 16 1012.1 - - - - - - - - -
21/07:00am 18.4 E 14 17 1011.8 - - - - - - - - -
21/06:30am 18.4 E 12 14 1012.0 - - - - - - - - -
21/06:00am 18.5 E 11 15 1011.6 - - - - - - - - -
21/05:30am 18.6 E 10 14 1011.6 - - - - - - - - -
21/05:00am 18.8 E 9 13 1011.7 - - - - - - - - -
21/04:30am 18.9 E 10 13 1011.5 - - - - - - - - -
21/04:00am 19.1 E 11 13 1011.4 - - - - - - - - -
21/03:30am 19.2 E 10 13 1011.5 - - - - - - - - -

Other Formats:

Comma delimited format used in spreadsheet applications
http://www.bom.gov.au/fwo/IDV60701/IDV60701.95826.axf

JavaScript Object Notation format (JSON) in row-major order
http://www.bom.gov.au/fwo/IDV60701/IDV60701.95826.json